This is the latest recevied weather packets stored in our database for station/object SQ9MHX-13. If no packets are shown the sender has not sent any weather packets the latest 10 day(s).
| Time | Temp. | Humidity | Pressure | Rain* | Wind** | Luminosity | Snow |
|---|---|---|---|---|---|---|---|
| 1777455799 | 8.89° C | 34% | 983.3 hPa | - | 0 m/s | - | - |
| 1777455501 | 7.78° C | 35% | 983.2 hPa | - | 0 m/s | - | - |
| 1777455202 | 8.89° C | 34% | 982.7 hPa | - | 0 m/s | - | - |
| 1777454904 | 7.78° C | 35% | 983 hPa | - | 0 m/s | - | - |
| 1777454605 | 8.89° C | 35% | 983.7 hPa | - | 0 m/s | - | - |
| 1777454307 | 7.78° C | 35% | 983.3 hPa | - | 0 m/s | - | - |
| 1777454009 | 8.89° C | 35% | 983.6 hPa | - | 0 m/s | - | - |
| 1777453711 | 7.78° C | 38% | 983.9 hPa | - | 0 m/s | - | - |
| 1777453412 | 7.22° C | 38% | 984.2 hPa | - | 0 m/s | - | - |
| 1777453114 | 7.78° C | 37% | 984.3 hPa | - | 0 m/s | - | - |
| 1777452816 | 7.22° C | 36% | 983 hPa | - | 0 m/s | - | - |
| 1777452517 | 8.89° C | 34% | 981.8 hPa | - | 0 m/s | - | - |
| 1777452219 | 10° C | 37% | 982.5 hPa | - | 0 m/s | - | - |
| 1777451920 | 8.89° C | 38% | 982 hPa | - | 0 m/s | - | - |
| 1777451622 | 7.78° C | 40% | 982.8 hPa | - | 0 m/s | - | - |
| 1777451323 | 8.89° C | 39% | 982.2 hPa | - | 0 m/s | - | - |
| 1777450726 | 7.78° C | 44% | 984.1 hPa | - | 0 m/s | - | - |
| 1777450428 | 7.22° C | 45% | 985.4 hPa | - | 0 m/s | - | - |
| 1777450130 | 6.11° C | 45% | 985.7 hPa | - | 0 m/s | - | - |
| 1777449832 | 7.22° C | 47% | 985.3 hPa | - | 0 m/s | - | - |
| 1777449533 | 7.22° C | 44% | 984.9 hPa | - | 0 m/s | - | - |
| 1777449235 | 7.22° C | 44% | 984.2 hPa | - | 0 m/s | - | - |
| 1777448937 | 7.78° C | 44% | 984 hPa | - | 0 m/s | - | - |
| 1777448638 | 7.22° C | 47% | 985.7 hPa | - | 0 m/s | - | - |
| 1777448340 | 7.22° C | 47% | 985.1 hPa | - | 0 m/s | - | - |
* Rain since midnight (hover to see other rain measurements)
** Current wind speed in m/s (hover to see current wind gust speed)